createdAt,value
2022-12-06T00:01:33.476Z,70.00
2022-12-06T00:04:05.396Z,68.70
2022-12-06T00:06:37.628Z,70.00
2022-12-06T00:09:05.779Z,71.00
2022-12-06T00:11:36.298Z,74.40
2022-12-06T00:14:06.615Z,69.20
2022-12-06T00:16:35.349Z,75.00
2022-12-06T00:19:04.393Z,72.40
2022-12-06T00:21:37.054Z,68.30
2022-12-06T00:24:07.905Z,72.00
2022-12-06T00:26:38.268Z,71.40
2022-12-06T00:29:08.243Z,66.60
2022-12-06T00:31:36.445Z,69.30
2022-12-06T00:34:04.816Z,73.90
2022-12-06T00:36:35.875Z,66.70
2022-12-06T00:39:07.308Z,67.40
2022-12-06T00:41:35.273Z,66.00
2022-12-06T00:44:03.380Z,67.00
2022-12-06T00:46:32.903Z,67.40
2022-12-06T00:49:03.443Z,61.60
2022-12-06T00:51:33.773Z,63.70
2022-12-06T00:54:02.613Z,58.00
2022-12-06T00:56:31.764Z,61.60
2022-12-06T00:58:59.671Z,64.40
2022-12-06T01:01:30.921Z,66.40
2022-12-06T01:04:02.108Z,69.30
2022-12-06T01:06:33.065Z,64.00
2022-12-06T01:09:05.305Z,67.80
2022-12-06T01:11:33.742Z,64.90
2022-12-06T01:14:02.888Z,61.90
2022-12-06T01:16:32.076Z,63.70
2022-12-06T01:19:03.231Z,66.20
2022-12-06T01:21:31.227Z,61.60
2022-12-06T01:23:59.519Z,64.50
2022-12-06T01:26:30.799Z,66.80
2022-12-06T01:29:00.104Z,67.00
2022-12-06T01:31:33.971Z,71.30
2022-12-06T01:34:14.332Z,67.10
2022-12-06T01:36:42.959Z,70.10
2022-12-06T01:39:11.882Z,75.30
2022-12-06T01:41:40.055Z,65.90
2022-12-06T01:44:43.413Z,62.00
2022-12-06T01:47:23.468Z,60.30
2022-12-06T01:49:57.962Z,66.00
2022-12-06T01:52:50.190Z,69.30
2022-12-06T01:55:21.411Z,75.30
2022-12-06T01:57:52.912Z,70.40
2022-12-06T02:00:20.968Z,62.10
2022-12-06T02:02:49.218Z,69.40
2022-12-06T02:05:17.731Z,65.20
2022-12-06T02:07:47.408Z,66.30
2022-12-06T02:10:15.398Z,71.50
2022-12-06T02:12:43.413Z,70.00
2022-12-06T02:15:11.616Z,67.90
2022-12-06T02:17:54.505Z,72.80
2022-12-06T02:20:44.702Z,65.80
2022-12-06T02:23:43.346Z,74.00
2022-12-06T02:26:19.951Z,70.20
2022-12-06T02:29:29.090Z,118.10
2022-12-06T02:32:19.976Z,101.20
2022-12-06T02:35:07.945Z,130.70
2022-12-06T02:37:49.493Z,147.70
2022-12-06T02:40:27.008Z,147.90
2022-12-06T02:43:01.438Z,143.90
2022-12-06T02:45:34.114Z,144.40
2022-12-06T02:48:04.236Z,144.20
2022-12-06T02:50:38.423Z,144.60
2022-12-06T02:53:11.859Z,166.60
2022-12-06T02:55:41.228Z,150.50
2022-12-06T02:58:10.119Z,158.00
2022-12-06T03:00:47.313Z,165.30
2022-12-06T03:03:37.595Z,180.80
2022-12-06T03:06:43.550Z,161.50
2022-12-06T03:09:42.924Z,167.20
2022-12-06T03:12:22.808Z,150.80
2022-12-06T03:14:58.595Z,167.60
2022-12-06T03:17:43.682Z,164.90
2022-12-06T03:20:19.477Z,157.80
2022-12-06T03:22:55.354Z,146.80
2022-12-06T03:25:24.567Z,164.10
2022-12-06T03:27:56.284Z,183.90
2022-12-06T03:30:24.516Z,167.00
2022-12-06T03:32:52.806Z,162.10
2022-12-06T03:35:27.997Z,164.30
2022-12-06T03:40:30.754Z,165.30
2022-12-06T03:43:00.231Z,164.70
2022-12-06T03:45:44.472Z,196.70
2022-12-06T03:48:22.808Z,179.00
2022-12-06T03:51:10.251Z,158.10
2022-12-06T03:53:48.306Z,156.00
2022-12-06T03:56:16.557Z,167.80
2022-12-06T03:58:45.785Z,158.50
2022-12-06T04:01:13.872Z,158.50
2022-12-06T04:03:42.159Z,148.50
2022-12-06T04:06:11.283Z,169.60
2022-12-06T04:08:39.307Z,168.80
2022-12-06T04:11:07.582Z,152.80
2022-12-06T04:13:35.848Z,171.10
2022-12-06T04:16:24.514Z,188.90
2022-12-06T04:18:52.656Z,173.70
2022-12-06T04:21:33.288Z,158.20
2022-12-06T04:24:02.843Z,192.30
2022-12-06T04:26:30.852Z,182.10
2022-12-06T04:29:17.695Z,209.40
2022-12-06T04:32:04.477Z,192.40
2022-12-06T04:34:51.317Z,177.20
2022-12-06T04:37:38.327Z,182.30
2022-12-06T04:40:07.125Z,189.20
2022-12-06T04:42:53.694Z,176.60
2022-12-06T04:45:21.693Z,166.40
2022-12-06T04:47:49.808Z,166.70
2022-12-06T04:50:17.839Z,158.60
2022-12-06T04:52:46.344Z,165.60
2022-12-06T04:55:14.620Z,160.90
2022-12-06T04:57:42.757Z,152.90
2022-12-06T05:00:11.391Z,146.40
2022-12-06T05:02:39.632Z,154.50
2022-12-06T05:05:08.251Z,137.90
2022-12-06T05:07:36.494Z,140.80
2022-12-06T05:10:05.407Z,119.40
2022-12-06T05:12:33.600Z,144.90
2022-12-06T05:15:01.799Z,136.80
2022-12-06T05:17:30.037Z,146.20
2022-12-06T05:19:58.468Z,122.70
2022-12-06T05:22:27.115Z,126.80
2022-12-06T05:24:56.631Z,116.50
2022-12-06T05:27:24.825Z,135.10
2022-12-06T05:29:52.975Z,119.00
2022-12-06T05:32:21.219Z,125.70
2022-12-06T05:34:49.424Z,122.40
2022-12-06T05:37:17.843Z,111.90
2022-12-06T05:39:46.217Z,112.90
2022-12-06T05:42:22.078Z,123.40
2022-12-06T05:44:51.010Z,113.40
2022-12-06T05:47:19.304Z,110.80
2022-12-06T05:49:47.508Z,114.20
2022-12-06T05:52:15.885Z,106.70
2022-12-06T05:54:44.073Z,134.60
2022-12-06T05:57:12.380Z,102.10
2022-12-06T05:59:40.599Z,131.50
2022-12-06T06:02:08.900Z,120.10
2022-12-06T06:04:37.233Z,116.30
2022-12-06T06:07:05.548Z,120.80
2022-12-06T06:09:33.813Z,115.00
2022-12-06T06:12:02.037Z,118.90
2022-12-06T06:14:30.331Z,117.20
2022-12-06T06:16:58.616Z,118.20
2022-12-06T06:19:26.876Z,124.80
2022-12-06T06:21:55.247Z,122.30
2022-12-06T06:24:23.946Z,101.10
2022-12-06T06:26:52.248Z,132.00
2022-12-06T06:29:20.474Z,106.10
2022-12-06T06:31:48.716Z,114.00
2022-12-06T06:34:17.021Z,104.50
2022-12-06T06:36:46.153Z,120.80
2022-12-06T06:39:14.773Z,123.10
2022-12-06T06:41:43.176Z,119.80
2022-12-06T06:44:12.238Z,105.10
2022-12-06T06:46:40.461Z,109.10
2022-12-06T06:49:12.030Z,106.80
2022-12-06T06:51:40.709Z,108.00
2022-12-06T06:54:09.137Z,118.70
2022-12-06T06:56:37.840Z,96.90
2022-12-06T06:59:06.723Z,102.10
2022-12-06T07:01:35.078Z,97.50
2022-12-06T07:04:03.452Z,117.30
2022-12-06T07:06:31.720Z,117.40
2022-12-06T07:08:59.936Z,114.90
2022-12-06T07:11:28.215Z,117.20
2022-12-06T07:13:56.451Z,118.40
2022-12-06T07:16:24.733Z,102.90
2022-12-06T07:18:53.007Z,105.20
2022-12-06T07:21:24.226Z,101.40
2022-12-06T07:23:52.648Z,98.20
2022-12-06T07:26:22.995Z,102.70
2022-12-06T07:28:51.877Z,100.60
2022-12-06T07:31:26.226Z,102.70
2022-12-06T07:34:00.508Z,89.10
2022-12-06T07:36:31.054Z,99.20
2022-12-06T07:39:00.903Z,96.90
2022-12-06T07:41:49.054Z,105.10
2022-12-06T07:44:59.788Z,84.60
2022-12-06T07:47:41.914Z,88.90
2022-12-06T07:50:17.960Z,87.90
2022-12-06T07:52:51.001Z,88.90
2022-12-06T07:55:19.359Z,83.90
2022-12-06T07:57:47.642Z,89.20
2022-12-06T08:00:16.402Z,79.90
2022-12-06T08:02:44.765Z,90.60
2022-12-06T08:05:13.797Z,87.40
2022-12-06T08:07:42.101Z,95.60
2022-12-06T08:10:10.624Z,86.50
2022-12-06T08:12:38.862Z,90.60
2022-12-06T08:15:13.149Z,107.90
2022-12-06T08:17:42.691Z,93.70
2022-12-06T08:20:12.608Z,89.50
2022-12-06T08:22:41.444Z,97.90
2022-12-06T08:25:10.008Z,102.50
2022-12-06T08:27:38.240Z,108.90
2022-12-06T08:30:07.177Z,110.40
2022-12-06T08:32:35.709Z,112.60
2022-12-06T08:35:04.143Z,97.30
2022-12-06T08:37:34.519Z,100.70
2022-12-06T08:40:03.278Z,93.80
2022-12-06T08:42:31.824Z,79.20
2022-12-06T08:45:00.184Z,70.70
2022-12-06T08:47:28.568Z,73.10
2022-12-06T08:49:59.396Z,75.20
2022-12-06T08:52:28.049Z,86.10
2022-12-06T08:54:56.302Z,77.10
2022-12-06T08:57:24.724Z,83.10
2022-12-06T08:59:53.020Z,85.40
2022-12-06T09:02:21.323Z,85.50
2022-12-06T09:04:53.161Z,79.20
2022-12-06T09:07:23.267Z,80.20
2022-12-06T09:09:53.078Z,77.60
2022-12-06T09:12:21.786Z,81.60
2022-12-06T09:14:50.510Z,82.90
2022-12-06T09:17:19.267Z,83.20
2022-12-06T09:19:47.907Z,78.60
2022-12-06T09:22:16.057Z,73.60
2022-12-06T09:24:44.309Z,69.80
2022-12-06T09:27:12.647Z,77.90
2022-12-06T09:29:41.127Z,75.80
2022-12-06T09:32:09.479Z,77.20
2022-12-06T09:34:37.832Z,76.60
2022-12-06T09:37:12.132Z,75.50
2022-12-06T09:39:48.162Z,74.20
2022-12-06T09:42:50.910Z,77.40
2022-12-06T09:45:24.069Z,74.00
2022-12-06T09:48:24.084Z,73.10
2022-12-06T09:50:58.937Z,78.70
2022-12-06T09:53:54.394Z,74.90
2022-12-06T09:56:41.730Z,82.00
2022-12-06T09:59:09.875Z,95.90
2022-12-06T10:02:16.512Z,104.30
2022-12-06T10:04:53.096Z,101.10
2022-12-06T10:07:50.016Z,101.70
2022-12-06T10:10:46.262Z,109.60
2022-12-06T10:13:57.247Z,101.40
2022-12-06T10:16:34.269Z,108.50
2022-12-06T10:19:40.439Z,107.60
2022-12-06T10:22:29.778Z,94.00
2022-12-06T10:25:14.251Z,90.00
2022-12-06T10:27:50.623Z,84.30
2022-12-06T10:30:19.557Z,83.20
2022-12-06T10:32:54.259Z,81.70
2022-12-06T10:35:41.851Z,82.00
2022-12-06T10:38:39.124Z,84.70
2022-12-06T10:41:40.424Z,85.70
2022-12-06T10:44:30.576Z,86.20
2022-12-06T10:47:07.203Z,88.10
2022-12-06T10:50:04.923Z,80.40
2022-12-06T10:52:42.094Z,82.10
2022-12-06T10:55:10.954Z,81.70
2022-12-06T10:58:00.608Z,82.70
2022-12-06T11:00:35.036Z,77.10
2022-12-06T11:03:32.334Z,71.50
2022-12-06T11:06:08.512Z,75.60
2022-12-06T11:08:36.616Z,78.60
2022-12-06T11:11:11.319Z,70.20
2022-12-06T11:13:49.876Z,73.80
2022-12-06T11:16:41.465Z,78.20
2022-12-06T11:19:16.073Z,76.40
2022-12-06T11:21:54.209Z,81.10
2022-12-06T11:24:35.500Z,75.40
2022-12-06T11:27:48.453Z,95.90
2022-12-06T11:30:20.548Z,110.70
2022-12-06T11:32:52.531Z,111.20
2022-12-06T11:35:25.464Z,140.20
2022-12-06T11:38:00.672Z,119.90
2022-12-06T11:40:32.878Z,103.20
2022-12-06T11:43:05.630Z,91.90
2022-12-06T11:45:37.973Z,90.90
2022-12-06T11:48:19.298Z,94.70
2022-12-06T11:50:49.633Z,94.00
2022-12-06T11:53:26.229Z,94.60
2022-12-06T11:56:06.652Z,96.90
2022-12-06T11:58:41.959Z,88.10
2022-12-06T12:01:14.817Z,82.80
2022-12-06T12:03:45.223Z,80.50
2022-12-06T12:06:25.400Z,81.90
2022-12-06T12:09:07.727Z,79.60
2022-12-06T12:11:40.464Z,78.70
2022-12-06T12:14:17.484Z,79.50
2022-12-06T12:16:49.467Z,72.90
2022-12-06T12:19:49.114Z,76.90
2022-12-06T12:22:40.423Z,77.40
2022-12-06T12:25:23.167Z,84.80
2022-12-06T12:27:54.751Z,86.90
2022-12-06T12:30:39.106Z,77.70
2022-12-06T12:33:07.340Z,82.50
2022-12-06T12:35:37.063Z,81.20
2022-12-06T12:38:15.637Z,84.50
2022-12-06T12:41:12.738Z,89.20
2022-12-06T12:44:07.767Z,81.50
2022-12-06T12:46:45.846Z,77.00
2022-12-06T12:49:36.303Z,88.80
2022-12-06T12:52:29.455Z,89.90
2022-12-06T12:55:15.771Z,82.20
2022-12-06T12:57:46.744Z,87.70
2022-12-06T13:00:26.375Z,93.60
2022-12-06T13:03:01.739Z,85.80
2022-12-06T13:05:34.975Z,93.60
2022-12-06T13:08:15.514Z,84.00
2022-12-06T13:10:54.070Z,82.10
2022-12-06T13:13:28.942Z,80.20
2022-12-06T13:15:58.819Z,88.50
2022-12-06T13:18:41.401Z,93.40
2022-12-06T13:21:34.553Z,101.50
2022-12-06T13:24:11.649Z,97.60
2022-12-06T13:26:48.792Z,99.50
2022-12-06T13:29:36.141Z,102.00
2022-12-06T13:32:22.207Z,92.80
2022-12-06T13:34:57.647Z,96.20
2022-12-06T13:37:54.963Z,114.60
2022-12-06T13:40:35.081Z,116.60
2022-12-06T13:43:06.549Z,111.30
2022-12-06T13:45:47.208Z,102.80
2022-12-06T13:48:24.695Z,102.60
2022-12-06T13:51:03.384Z,106.30
2022-12-06T13:53:34.157Z,94.70
2022-12-06T13:56:02.428Z,99.30
2022-12-06T13:58:40.016Z,180.60
2022-12-06T14:01:40.035Z,122.40
2022-12-06T14:04:24.127Z,98.80
2022-12-06T14:06:53.914Z,99.50
2022-12-06T14:09:24.436Z,102.10
2022-12-06T14:11:55.654Z,102.90
2022-12-06T14:14:25.969Z,97.10
2022-12-06T14:16:57.331Z,88.20
2022-12-06T14:19:28.242Z,101.90
2022-12-06T14:21:58.165Z,96.80
2022-12-06T14:24:43.096Z,96.90
2022-12-06T14:27:18.553Z,107.00
2022-12-06T14:30:26.105Z,118.90
2022-12-06T14:32:57.833Z,123.80
2022-12-06T14:35:28.811Z,115.00
2022-12-06T14:38:02.372Z,115.00
2022-12-06T14:41:02.172Z,98.50
2022-12-06T14:43:32.656Z,76.40
2022-12-06T14:46:04.203Z,81.60
2022-12-06T14:48:52.489Z,95.70
2022-12-06T14:51:24.063Z,116.60
2022-12-06T14:53:53.003Z,124.30
2022-12-06T14:56:35.963Z,103.30
2022-12-06T14:59:11.389Z,77.10
2022-12-06T15:01:51.002Z,74.60
2022-12-06T15:04:25.519Z,66.40
2022-12-06T15:06:56.376Z,60.30
2022-12-06T15:09:26.045Z,59.80
2022-12-06T15:12:40.446Z,51.60
2022-12-06T15:15:31.636Z,47.80
2022-12-06T15:18:24.284Z,48.00
2022-12-06T15:20:53.823Z,42.30
2022-12-06T15:23:38.529Z,44.80
2022-12-06T15:26:11.533Z,41.80
2022-12-06T15:28:40.183Z,42.10
2022-12-06T15:31:29.947Z,45.00
2022-12-06T15:33:58.305Z,45.00
2022-12-06T15:36:35.711Z,43.60
2022-12-06T15:39:03.937Z,30.80
2022-12-06T15:41:32.232Z,31.90
2022-12-06T15:44:00.235Z,40.30
2022-12-06T15:46:30.025Z,35.90
2022-12-06T15:48:59.760Z,34.60
2022-12-06T15:51:29.553Z,34.70
2022-12-06T15:53:59.535Z,35.50
2022-12-06T15:56:30.564Z,47.40
2022-12-06T15:58:58.787Z,29.70
2022-12-06T16:01:33.093Z,26.80
2022-12-06T16:04:01.742Z,19.60
2022-12-06T16:06:30.113Z,24.90
2022-12-06T16:08:58.225Z,25.40
2022-12-06T16:11:27.264Z,25.90
2022-12-06T16:13:55.431Z,26.70
2022-12-06T16:16:23.731Z,31.50
2022-12-06T16:18:51.964Z,27.90
2022-12-06T16:21:23.752Z,37.00
2022-12-06T16:24:16.745Z,35.70
2022-12-06T16:26:46.225Z,27.20
2022-12-06T16:29:21.203Z,25.50
2022-12-06T16:31:51.097Z,27.40
2022-12-06T16:34:19.323Z,28.70
2022-12-06T16:37:01.960Z,27.40
2022-12-06T16:39:34.042Z,29.80
2022-12-06T16:42:04.555Z,30.20
2022-12-06T16:44:32.704Z,27.60
2022-12-06T16:47:00.951Z,29.40
2022-12-06T16:49:47.975Z,28.30
2022-12-06T16:52:17.596Z,29.50
2022-12-06T16:54:45.831Z,26.70
2022-12-06T16:57:15.043Z,34.50
2022-12-06T16:59:43.477Z,33.90
2022-12-06T17:02:33.375Z,40.10
2022-12-06T17:05:06.617Z,36.80
2022-12-06T17:07:36.806Z,30.50
2022-12-06T17:10:05.900Z,30.70
2022-12-06T17:12:34.004Z,53.30
2022-12-06T17:15:02.505Z,73.50
2022-12-06T17:17:31.194Z,113.10
2022-12-06T17:19:59.380Z,112.80
2022-12-06T17:22:27.587Z,90.30
2022-12-06T17:24:55.728Z,61.40
2022-12-06T17:27:23.823Z,42.50
2022-12-06T17:29:52.173Z,40.70
2022-12-06T17:32:21.005Z,42.30
2022-12-06T17:34:49.164Z,40.30
2022-12-06T17:37:17.396Z,44.20
2022-12-06T17:39:45.664Z,46.10
2022-12-06T17:42:32.213Z,49.10
2022-12-06T17:45:00.863Z,55.80
2022-12-06T17:47:30.354Z,59.80
2022-12-06T17:49:58.731Z,51.40
2022-12-06T17:52:27.292Z,48.40
2022-12-06T17:54:55.387Z,39.70
2022-12-06T17:57:23.685Z,41.70
2022-12-06T17:59:52.283Z,42.10
2022-12-06T18:02:25.990Z,37.60
2022-12-06T18:04:56.451Z,33.80
2022-12-06T18:07:24.522Z,35.90
2022-12-06T18:09:52.671Z,34.60
2022-12-06T18:12:20.857Z,35.50
2022-12-06T18:14:49.021Z,32.60
2022-12-06T18:17:17.173Z,32.10
2022-12-06T18:19:47.333Z,31.40
2022-12-06T18:22:16.020Z,36.60
2022-12-06T18:24:44.977Z,41.50
2022-12-06T18:27:14.178Z,35.20
2022-12-06T18:29:42.312Z,37.60
2022-12-06T18:32:10.543Z,39.90
2022-12-06T18:34:39.519Z,38.40
2022-12-06T18:37:07.661Z,36.30
2022-12-06T18:39:35.785Z,37.10
2022-12-06T18:42:05.331Z,35.10
2022-12-06T18:44:33.447Z,32.70
2022-12-06T18:47:01.586Z,32.50
2022-12-06T18:49:29.886Z,34.70
2022-12-06T18:51:58.542Z,37.70
2022-12-06T18:54:28.498Z,37.50
2022-12-06T18:56:58.967Z,33.20
2022-12-06T18:59:27.926Z,36.80
2022-12-06T19:01:57.754Z,33.90
2022-12-06T19:04:26.036Z,32.40
2022-12-06T19:06:54.627Z,38.00
2022-12-06T19:09:25.037Z,34.90
2022-12-06T19:11:53.259Z,33.70
2022-12-06T19:14:23.254Z,38.00
2022-12-06T19:16:52.768Z,34.30
2022-12-06T19:19:26.307Z,38.40
2022-12-06T19:21:57.120Z,33.10
2022-12-06T19:24:25.922Z,36.60
2022-12-06T19:26:58.120Z,32.50
2022-12-06T19:29:29.795Z,33.70
2022-12-06T19:31:58.092Z,31.20
2022-12-06T19:34:27.584Z,29.60
2022-12-06T19:36:57.237Z,27.60
2022-12-06T19:39:25.807Z,28.90
2022-12-06T19:42:12.807Z,31.00
2022-12-06T19:44:41.047Z,29.30
2022-12-06T19:47:09.729Z,25.40
2022-12-06T19:49:37.879Z,28.60
2022-12-06T19:52:05.985Z,26.80
2022-12-06T19:54:36.030Z,24.50
2022-12-06T19:57:05.791Z,28.00
2022-12-06T19:59:36.624Z,30.40
2022-12-06T20:02:06.204Z,30.70
2022-12-06T20:04:37.550Z,30.10
2022-12-06T20:07:06.679Z,28.20
2022-12-06T20:09:34.986Z,30.40
2022-12-06T20:12:06.268Z,29.40
2022-12-06T20:14:39.505Z,26.90
2022-12-06T20:17:14.219Z,22.90
2022-12-06T20:19:43.348Z,27.70
2022-12-06T20:22:13.579Z,26.70
2022-12-06T20:24:42.376Z,27.00
2022-12-06T20:27:11.305Z,28.20
2022-12-06T20:29:40.453Z,24.90
2022-12-06T20:32:10.414Z,22.90
2022-12-06T20:34:39.417Z,28.60
2022-12-06T20:37:07.586Z,27.20
2022-12-06T20:39:37.001Z,31.00
2022-12-06T20:42:07.223Z,25.40
2022-12-06T20:44:35.958Z,26.60
2022-12-06T20:47:04.686Z,25.60
2022-12-06T20:49:33.037Z,28.00
2022-12-06T20:52:03.061Z,28.10
2022-12-06T20:54:31.295Z,27.10
2022-12-06T20:56:59.396Z,31.00
2022-12-06T20:59:29.429Z,26.20
2022-12-06T21:01:58.323Z,33.70
2022-12-06T21:04:27.048Z,26.50
2022-12-06T21:06:55.855Z,27.00
2022-12-06T21:09:24.515Z,26.70
2022-12-06T21:11:52.651Z,25.50
2022-12-06T21:14:20.886Z,27.00
2022-12-06T21:16:49.088Z,26.20
2022-12-06T21:19:19.646Z,25.80
2022-12-06T21:21:54.011Z,26.00
2022-12-06T21:24:22.361Z,30.70
2022-12-06T21:26:50.506Z,24.50
2022-12-06T21:29:30.479Z,25.60
2022-12-06T21:32:02.467Z,22.10
2022-12-06T21:34:31.372Z,25.20
2022-12-06T21:36:59.516Z,20.40
2022-12-06T21:39:29.112Z,21.20
2022-12-06T21:41:57.547Z,25.50
2022-12-06T21:44:25.827Z,21.70
2022-12-06T21:46:54.177Z,25.00
2022-12-06T21:49:22.636Z,21.80
2022-12-06T21:51:55.050Z,25.90
2022-12-06T21:54:27.101Z,25.60
2022-12-06T21:56:56.867Z,21.90
2022-12-06T21:59:25.040Z,24.80
2022-12-06T22:01:53.808Z,22.40
2022-12-06T22:04:22.143Z,19.80
2022-12-06T22:06:50.181Z,21.60
2022-12-06T22:09:18.429Z,21.90
2022-12-06T22:11:47.023Z,24.10
2022-12-06T22:14:15.170Z,21.80
2022-12-06T22:16:43.376Z,24.20
2022-12-06T22:19:11.527Z,21.90
2022-12-06T22:21:39.580Z,22.50
2022-12-06T22:24:07.960Z,23.50
2022-12-06T22:26:36.844Z,24.70
2022-12-06T22:29:05.141Z,24.00
2022-12-06T22:31:34.179Z,22.10
2022-12-06T22:34:02.654Z,24.90
2022-12-06T22:36:32.112Z,23.90
2022-12-06T22:39:02.429Z,22.90
2022-12-06T22:41:30.851Z,22.60
2022-12-06T22:44:02.868Z,21.80
2022-12-06T22:46:32.445Z,21.50
2022-12-06T22:49:01.925Z,21.60
2022-12-06T22:51:32.645Z,21.40
2022-12-06T22:54:03.972Z,21.60
2022-12-06T22:56:33.552Z,21.50
2022-12-06T22:59:02.848Z,21.40
2022-12-06T23:01:33.789Z,18.70
2022-12-06T23:04:05.914Z,20.80
2022-12-06T23:06:35.886Z,20.60
2022-12-06T23:09:29.661Z,19.20
2022-12-06T23:11:57.676Z,19.40
2022-12-06T23:14:25.852Z,17.10
2022-12-06T23:16:54.167Z,20.80
2022-12-06T23:19:22.333Z,18.40
2022-12-06T23:21:50.784Z,19.10
2022-12-06T23:24:18.892Z,18.20
2022-12-06T23:26:53.121Z,20.20
2022-12-06T23:29:23.066Z,19.50
2022-12-06T23:31:51.244Z,18.10
2022-12-06T23:34:25.696Z,20.30
2022-12-06T23:36:54.549Z,14.90
2022-12-06T23:39:22.697Z,17.20
2022-12-06T23:41:50.808Z,19.20
2022-12-06T23:44:18.974Z,18.10
2022-12-06T23:46:47.072Z,16.50
2022-12-06T23:49:19.179Z,13.30
2022-12-06T23:51:48.235Z,16.00
2022-12-06T23:54:17.947Z,18.10
2022-12-06T23:56:47.020Z,17.50
2022-12-06T23:59:16.808Z,13.20
